createdAt,value
2017-08-28T00:02:09.844Z,99171
2017-08-28T00:04:37.926Z,99180
2017-08-28T00:07:06.018Z,99173
2017-08-28T00:09:34.092Z,99178
2017-08-28T00:12:02.177Z,99180
2017-08-28T00:14:30.253Z,99175
2017-08-28T00:16:58.339Z,99177
2017-08-28T00:19:26.418Z,99178
2017-08-28T00:21:54.496Z,99180
2017-08-28T00:24:22.888Z,99191
2017-08-28T00:26:50.960Z,99194
2017-08-28T00:29:19.684Z,99197
2017-08-28T00:31:47.759Z,99195
2017-08-28T00:34:15.843Z,99197
2017-08-28T00:36:43.922Z,99196
2017-08-28T00:39:12.015Z,99201
2017-08-28T00:41:40.092Z,99203
2017-08-28T00:44:08.192Z,99197
2017-08-28T00:46:36.259Z,99206
2017-08-28T00:49:04.343Z,99210
2017-08-28T00:51:32.431Z,99201
2017-08-28T00:54:00.507Z,99205
2017-08-28T00:56:28.587Z,99199
2017-08-28T00:58:56.660Z,99197
2017-08-28T01:01:24.764Z,99207
2017-08-28T01:03:52.840Z,99200
2017-08-28T01:06:20.928Z,99208
2017-08-28T01:08:48.994Z,99194
2017-08-28T01:11:17.267Z,99190
2017-08-28T01:13:45.346Z,99190
2017-08-28T01:16:13.436Z,99193
2017-08-28T01:18:41.511Z,99194
2017-08-28T01:21:09.593Z,99193
2017-08-28T01:23:37.687Z,99199
2017-08-28T01:26:05.771Z,99195
2017-08-28T01:28:33.860Z,99201
2017-08-28T01:31:01.926Z,99195
2017-08-28T01:33:30.018Z,99196
2017-08-28T01:35:58.088Z,99192
2017-08-28T01:38:26.167Z,99192
2017-08-28T01:40:54.243Z,99192
2017-08-28T01:43:22.327Z,99191
2017-08-28T01:45:50.425Z,99190
2017-08-28T01:48:18.512Z,99198
2017-08-28T01:50:46.591Z,99193
2017-08-28T01:53:14.680Z,99195
2017-08-28T01:55:42.746Z,99186
2017-08-28T01:58:10.824Z,99196
2017-08-28T02:00:38.912Z,99202
2017-08-28T02:03:06.989Z,99201
2017-08-28T02:05:35.089Z,99198
2017-08-28T02:08:03.197Z,99198
2017-08-28T02:10:31.280Z,99203
2017-08-28T02:12:59.371Z,99210
2017-08-28T02:15:27.597Z,99208
2017-08-28T02:17:55.679Z,99196
2017-08-28T02:20:23.759Z,99197
2017-08-28T02:22:51.829Z,99206
2017-08-28T02:25:19.924Z,99202
2017-08-28T02:27:48.003Z,99204
2017-08-28T02:30:16.083Z,99205
2017-08-28T02:32:44.163Z,99198
2017-08-28T02:35:12.247Z,99206
2017-08-28T02:37:40.344Z,99204
2017-08-28T02:40:08.424Z,99203
2017-08-28T02:42:36.547Z,99195
2017-08-28T02:45:04.701Z,99204
2017-08-28T02:47:32.804Z,99224
2017-08-28T02:50:00.888Z,99225
2017-08-28T02:52:28.980Z,99228
2017-08-28T02:54:57.048Z,99226
2017-08-28T02:57:25.136Z,99224
2017-08-28T02:59:53.237Z,99219
2017-08-28T03:02:21.335Z,99219
2017-08-28T03:04:49.413Z,99221
2017-08-28T03:07:17.509Z,99213
2017-08-28T03:09:45.596Z,99215
2017-08-28T03:12:13.679Z,99213
2017-08-28T03:14:41.765Z,99221
2017-08-28T03:17:09.861Z,99209
2017-08-28T03:19:37.919Z,99209
2017-08-28T03:22:06.024Z,99201
2017-08-28T03:24:34.095Z,99197
2017-08-28T03:27:02.166Z,99203
2017-08-28T03:29:30.296Z,99199
2017-08-28T03:31:58.366Z,99205
2017-08-28T03:34:26.500Z,99200
2017-08-28T03:36:54.584Z,99207
2017-08-28T03:39:22.672Z,99203
2017-08-28T03:41:50.752Z,99209
2017-08-28T03:44:18.838Z,99197
2017-08-28T03:46:46.915Z,99208
2017-08-28T03:49:14.986Z,99204
2017-08-28T03:51:43.059Z,99209
2017-08-28T03:54:11.139Z,99202
2017-08-28T03:56:39.223Z,99205
2017-08-28T03:59:07.304Z,99209
2017-08-28T04:01:35.495Z,99212
2017-08-28T04:04:03.568Z,99212
2017-08-28T04:06:31.659Z,99215
2017-08-28T04:08:59.740Z,99224
2017-08-28T04:11:27.820Z,99227
2017-08-28T04:13:55.912Z,99228
2017-08-28T04:16:24.011Z,99231
2017-08-28T04:18:52.091Z,99221
2017-08-28T04:21:20.180Z,99226
2017-08-28T04:23:48.248Z,99211
2017-08-28T04:26:16.336Z,99207
2017-08-28T04:28:44.424Z,99210
2017-08-28T04:31:12.497Z,99214
2017-08-28T04:33:40.571Z,99215
2017-08-28T04:36:08.644Z,99212
2017-08-28T04:38:36.732Z,99205
2017-08-28T04:41:04.811Z,99210
2017-08-28T04:43:32.897Z,99203
2017-08-28T04:46:00.999Z,99200
2017-08-28T04:48:29.070Z,99209
2017-08-28T04:50:57.143Z,99218
2017-08-28T04:53:25.236Z,99214
2017-08-28T04:55:53.312Z,99208
2017-08-28T04:58:21.392Z,99216
2017-08-28T05:00:49.532Z,99226
2017-08-28T05:03:17.623Z,99224
2017-08-28T05:05:45.700Z,99229
2017-08-28T05:08:13.779Z,99221
2017-08-28T05:10:41.861Z,99227
2017-08-28T05:13:09.935Z,99227
2017-08-28T05:15:38.011Z,99226
2017-08-28T05:18:06.085Z,99220
2017-08-28T05:20:34.196Z,99227
2017-08-28T05:23:02.267Z,99227
2017-08-28T05:25:30.352Z,99221
2017-08-28T05:27:58.419Z,99227
2017-08-28T05:30:26.511Z,99232
2017-08-28T05:32:54.580Z,99223
2017-08-28T05:35:22.664Z,99227
2017-08-28T05:37:50.735Z,99225
2017-08-28T05:40:18.840Z,99221
2017-08-28T05:42:46.919Z,99224
2017-08-28T05:45:15.023Z,99220
2017-08-28T05:47:43.090Z,99226
2017-08-28T05:50:11.159Z,99222
2017-08-28T05:52:39.339Z,99228
2017-08-28T05:55:07.420Z,99231
2017-08-28T05:57:35.499Z,99234
2017-08-28T06:00:03.603Z,99228
2017-08-28T06:02:31.747Z,99224
2017-08-28T06:04:59.825Z,99221
2017-08-28T06:07:27.925Z,99230
2017-08-28T06:09:55.995Z,99222
2017-08-28T06:12:24.088Z,99225
2017-08-28T06:14:52.156Z,99234
2017-08-28T06:17:20.299Z,99234
2017-08-28T06:19:48.445Z,99232
2017-08-28T06:22:16.543Z,99241
2017-08-28T06:24:44.644Z,99223
2017-08-28T06:27:12.741Z,99230
2017-08-28T06:29:40.837Z,99221
2017-08-28T06:32:08.925Z,99232
2017-08-28T06:34:37.052Z,99230
2017-08-28T06:37:05.175Z,99228
2017-08-28T06:39:33.285Z,99226
2017-08-28T06:42:01.369Z,99222
2017-08-28T06:44:29.461Z,99227
2017-08-28T06:46:57.540Z,99228
2017-08-28T06:49:25.628Z,99236
2017-08-28T06:51:53.714Z,99242
2017-08-28T06:54:21.819Z,99231
2017-08-28T06:56:49.936Z,99236
2017-08-28T06:59:18.005Z,99232
2017-08-28T07:01:46.078Z,99238
2017-08-28T07:04:14.222Z,99237
2017-08-28T07:06:42.303Z,99242
2017-08-28T07:09:10.371Z,99247
2017-08-28T07:11:38.452Z,99241
2017-08-28T07:14:06.520Z,99237
2017-08-28T07:16:34.611Z,99240
2017-08-28T07:19:02.690Z,99240
2017-08-28T07:21:30.759Z,99239
2017-08-28T07:23:58.840Z,99235
2017-08-28T07:26:26.912Z,99232
2017-08-28T07:28:54.995Z,99238
2017-08-28T07:31:23.068Z,99237
2017-08-28T07:33:51.240Z,99236
2017-08-28T07:36:19.315Z,99233
2017-08-28T07:38:47.404Z,99235
2017-08-28T07:41:15.475Z,99240
2017-08-28T07:43:43.547Z,99230
2017-08-28T07:46:11.644Z,99231
2017-08-28T07:48:39.718Z,99226
2017-08-28T07:51:07.800Z,99233
2017-08-28T07:53:35.868Z,99229
2017-08-28T07:56:03.956Z,99234
2017-08-28T07:58:32.052Z,99233
2017-08-28T08:01:00.123Z,99247
2017-08-28T08:03:28.200Z,99242
2017-08-28T08:05:57.361Z,99236
2017-08-28T08:08:25.466Z,99242
2017-08-28T08:10:53.555Z,99236
2017-08-28T08:13:21.745Z,99238
2017-08-28T08:15:49.820Z,99241
2017-08-28T08:18:17.899Z,99247
2017-08-28T08:20:45.979Z,99241
2017-08-28T08:23:14.063Z,99241
2017-08-28T08:25:42.136Z,99236
2017-08-28T08:28:10.219Z,99234
2017-08-28T08:30:38.283Z,99240
2017-08-28T08:33:06.359Z,99236
2017-08-28T08:35:34.427Z,99238
2017-08-28T08:38:02.518Z,99240
2017-08-28T08:40:30.580Z,99232
2017-08-28T08:42:58.675Z,99235
2017-08-28T08:45:26.796Z,99234
2017-08-28T08:47:54.905Z,99227
2017-08-28T08:50:23.024Z,99224
2017-08-28T08:52:51.119Z,99221
2017-08-28T08:55:19.234Z,99230
2017-08-28T08:57:47.349Z,99232
2017-08-28T09:00:15.491Z,99229
2017-08-28T09:02:43.575Z,99228
2017-08-28T09:05:12.460Z,99220
2017-08-28T09:07:40.556Z,99216
2017-08-28T09:10:08.652Z,99216
2017-08-28T09:12:36.743Z,99209
2017-08-28T09:15:04.845Z,99213
2017-08-28T09:17:32.975Z,99209
2017-08-28T09:20:01.088Z,99207
2017-08-28T09:22:29.191Z,99209
2017-08-28T09:24:57.368Z,99210
2017-08-28T09:27:25.518Z,99218
2017-08-28T09:29:53.617Z,99209
2017-08-28T09:32:21.733Z,99205
2017-08-28T09:34:51.868Z,99208
2017-08-28T09:37:19.999Z,99211
2017-08-28T09:39:48.098Z,99215
2017-08-28T09:42:16.204Z,99222
2017-08-28T09:44:44.400Z,99210
2017-08-28T09:47:12.514Z,99213
2017-08-28T09:49:40.685Z,99222
2017-08-28T09:52:08.878Z,99206
2017-08-28T09:54:36.997Z,99217
2017-08-28T09:57:05.096Z,99214
2017-08-28T09:59:33.234Z,99210
2017-08-28T10:02:01.371Z,99215
2017-08-28T10:04:29.510Z,99213
2017-08-28T10:06:57.613Z,99206
2017-08-28T10:09:25.742Z,99211
2017-08-28T10:11:53.885Z,99207
2017-08-28T10:14:22.057Z,99214
2017-08-28T10:16:50.208Z,99210
2017-08-28T10:19:18.397Z,99210
2017-08-28T10:21:46.528Z,99202
2017-08-28T10:24:14.630Z,99208
2017-08-28T10:26:42.221Z,99204
2017-08-28T10:29:10.356Z,99198
2017-08-28T10:31:38.520Z,99186
2017-08-28T10:34:06.640Z,99198
2017-08-28T10:36:34.757Z,99202
2017-08-28T10:39:02.880Z,99201
2017-08-28T10:41:30.998Z,99200
2017-08-28T10:43:59.133Z,99204
2017-08-28T10:46:27.258Z,99207
2017-08-28T10:48:55.385Z,99197
2017-08-28T10:51:23.498Z,99194
2017-08-28T10:53:52.320Z,99192
2017-08-28T10:56:20.449Z,99197
2017-08-28T10:58:48.632Z,99191
2017-08-28T11:01:16.733Z,99185
2017-08-28T11:03:44.914Z,99190
2017-08-28T11:06:13.107Z,99184
2017-08-28T11:08:41.249Z,99178
2017-08-28T11:11:09.412Z,99184
2017-08-28T11:13:47.781Z,99172
2017-08-28T11:16:16.677Z,99183
2017-08-28T11:18:44.836Z,99179
2017-08-28T11:21:13.057Z,99174
2017-08-28T11:23:41.192Z,99173
2017-08-28T11:26:09.275Z,99172
2017-08-28T11:28:38.137Z,99177
2017-08-28T11:31:06.238Z,99171
2017-08-28T11:33:34.324Z,99162
2017-08-28T11:36:02.415Z,99171
2017-08-28T11:38:30.506Z,99179
2017-08-28T11:40:58.597Z,99165
2017-08-28T11:43:26.708Z,99169
2017-08-28T11:45:54.803Z,99176
2017-08-28T11:48:22.895Z,99171
2017-08-28T11:50:50.988Z,99166
2017-08-28T11:53:19.091Z,99173
2017-08-28T11:55:47.203Z,99163
2017-08-28T11:58:15.296Z,99159
2017-08-28T12:00:43.409Z,99167
2017-08-28T12:03:11.500Z,99160
2017-08-28T12:05:39.835Z,99156
2017-08-28T12:08:07.945Z,99162
2017-08-28T12:10:36.041Z,99155
2017-08-28T12:13:04.172Z,99155
2017-08-28T12:15:32.302Z,99147
2017-08-28T12:18:00.382Z,99155
2017-08-28T12:20:28.488Z,99157
2017-08-28T12:22:56.567Z,99150
2017-08-28T12:25:24.667Z,99147
2017-08-28T12:27:52.752Z,99150
2017-08-28T12:30:20.850Z,99151
2017-08-28T12:32:48.936Z,99145
2017-08-28T12:35:17.034Z,99143
2017-08-28T12:37:45.167Z,99138
2017-08-28T12:40:13.287Z,99139
2017-08-28T12:42:41.372Z,99142
2017-08-28T12:45:09.460Z,99140
2017-08-28T12:47:37.580Z,99133
2017-08-28T12:50:05.676Z,99130
2017-08-28T12:52:33.783Z,99131
2017-08-28T12:55:01.865Z,99123
2017-08-28T12:57:29.968Z,99125
2017-08-28T12:59:58.060Z,99119
2017-08-28T13:02:26.157Z,99117
2017-08-28T13:04:54.248Z,99114
2017-08-28T13:07:22.349Z,99117
2017-08-28T13:09:50.425Z,99110
2017-08-28T13:12:18.537Z,99121
2017-08-28T13:14:46.626Z,99115
2017-08-28T13:17:14.703Z,99103
2017-08-28T13:19:42.825Z,99103
2017-08-28T13:22:10.913Z,99106
2017-08-28T13:24:39.011Z,99110
2017-08-28T13:27:07.101Z,99104
2017-08-28T13:29:35.196Z,99100
2017-08-28T13:32:03.269Z,99101
2017-08-28T13:34:31.360Z,99104
2017-08-28T13:36:59.458Z,99097
2017-08-28T13:39:27.564Z,99098
2017-08-28T13:41:55.654Z,99095
2017-08-28T13:44:23.751Z,99098
2017-08-28T13:46:51.841Z,99097
2017-08-28T13:49:20.030Z,99095
2017-08-28T13:51:48.132Z,99087
2017-08-28T13:54:16.275Z,99098
2017-08-28T13:56:44.389Z,99091
2017-08-28T13:59:12.476Z,99094
2017-08-28T14:01:40.582Z,99092
2017-08-28T14:04:08.698Z,99084
2017-08-28T14:06:36.810Z,99077
2017-08-28T14:09:04.921Z,99088
2017-08-28T14:11:32.989Z,99078
2017-08-28T14:14:01.085Z,99083
2017-08-28T14:16:29.172Z,99082
2017-08-28T14:18:57.260Z,99079
2017-08-28T14:21:25.336Z,99073
2017-08-28T14:23:53.436Z,99083
2017-08-28T14:26:21.528Z,99073
2017-08-28T14:28:49.657Z,99059
2017-08-28T14:31:17.733Z,99069
2017-08-28T14:33:45.830Z,99072
2017-08-28T14:36:14.009Z,99074
2017-08-28T14:38:42.112Z,99069
2017-08-28T14:41:10.217Z,99074
2017-08-28T14:43:38.300Z,99064
2017-08-28T14:46:06.428Z,99063
2017-08-28T14:48:35.138Z,99063
2017-08-28T14:51:03.224Z,99065
2017-08-28T14:53:31.313Z,99060
2017-08-28T14:55:59.449Z,99059
2017-08-28T14:58:27.529Z,99065
2017-08-28T15:00:55.675Z,99057
2017-08-28T15:03:23.764Z,99058
2017-08-28T15:05:51.850Z,99062
2017-08-28T15:08:19.957Z,99063
2017-08-28T15:10:48.054Z,99066
2017-08-28T15:13:16.156Z,99069
2017-08-28T15:15:44.236Z,99072
2017-08-28T15:18:12.327Z,99063
2017-08-28T15:20:40.430Z,99058
2017-08-28T15:23:08.519Z,99060
2017-08-28T15:25:36.613Z,99055
2017-08-28T15:28:04.764Z,99059
2017-08-28T15:30:32.858Z,99054
2017-08-28T15:33:01.002Z,99056
2017-08-28T15:35:29.093Z,99053
2017-08-28T15:37:57.275Z,99049
2017-08-28T15:40:25.364Z,99041
2017-08-28T15:42:53.515Z,99039
2017-08-28T15:45:21.670Z,99040
2017-08-28T15:47:49.751Z,99039
2017-08-28T15:50:17.840Z,99033
2017-08-28T15:52:46.496Z,99026
2017-08-28T15:57:49.750Z,99023
2017-08-28T16:00:17.844Z,99028
2017-08-28T16:02:45.936Z,99026
2017-08-28T16:05:14.044Z,99029
2017-08-28T16:07:42.133Z,99032
2017-08-28T16:10:10.231Z,99027
2017-08-28T16:12:38.342Z,99036
2017-08-28T16:15:06.424Z,99031
2017-08-28T16:17:34.517Z,99026
2017-08-28T16:20:02.601Z,99024
2017-08-28T16:22:30.700Z,99025
2017-08-28T16:24:58.787Z,99027
2017-08-28T16:27:26.881Z,99032
2017-08-28T16:29:54.968Z,99028
2017-08-28T16:32:23.180Z,99031
2017-08-28T16:34:51.255Z,99026
2017-08-28T16:37:19.373Z,99027
2017-08-28T16:39:47.469Z,99023
2017-08-28T16:42:15.584Z,99021
2017-08-28T16:44:45.692Z,99019
2017-08-28T16:47:13.772Z,99021
2017-08-28T16:49:41.861Z,99032
2017-08-28T16:52:09.977Z,99024
2017-08-28T16:54:38.123Z,99030
2017-08-28T16:57:06.211Z,99021
2017-08-28T16:59:34.566Z,99020
2017-08-28T17:02:02.653Z,99032
2017-08-28T17:04:30.749Z,99033
2017-08-28T17:06:58.877Z,99029
2017-08-28T17:09:27.013Z,99041
2017-08-28T17:11:55.101Z,99040
2017-08-28T17:14:23.184Z,99043
2017-08-28T17:16:51.308Z,99039
2017-08-28T17:19:19.387Z,99041
2017-08-28T17:21:47.489Z,99042
2017-08-28T17:24:15.609Z,99047
2017-08-28T17:26:43.705Z,99053
2017-08-28T17:29:12.469Z,99041
2017-08-28T17:31:40.561Z,99044
2017-08-28T17:34:08.650Z,99043
2017-08-28T17:36:37.586Z,99044
2017-08-28T17:39:05.648Z,99048
2017-08-28T17:41:33.742Z,99052
2017-08-28T17:44:01.835Z,99051
2017-08-28T17:46:29.933Z,99056
2017-08-28T17:48:58.049Z,99052
2017-08-28T17:51:26.925Z,99043
2017-08-28T17:53:55.024Z,99054
2017-08-28T17:56:23.133Z,99039
2017-08-28T17:58:51.223Z,99051
2017-08-28T18:01:19.315Z,99058
2017-08-28T18:03:47.472Z,99055
2017-08-28T18:06:15.540Z,99058
2017-08-28T18:08:43.630Z,99059
2017-08-28T18:11:11.829Z,99064
2017-08-28T18:13:39.945Z,99061
2017-08-28T18:16:08.073Z,99070
2017-08-28T18:18:46.216Z,99067
2017-08-28T18:21:14.279Z,99075
2017-08-28T18:23:42.357Z,99067
2017-08-28T18:26:10.452Z,99076
2017-08-28T18:28:38.698Z,99079
2017-08-28T18:31:06.822Z,99073
2017-08-28T18:33:34.909Z,99085
2017-08-28T18:36:03.018Z,99082
2017-08-28T18:38:31.088Z,99094
2017-08-28T18:40:59.194Z,99089
2017-08-28T18:43:27.267Z,99090
2017-08-28T18:45:55.976Z,99100
2017-08-28T18:48:24.051Z,99087
2017-08-28T18:50:52.149Z,99092
2017-08-28T18:53:20.215Z,99091
2017-08-28T18:55:48.274Z,99107
2017-08-28T18:58:16.352Z,99109
2017-08-28T19:00:44.421Z,99107
2017-08-28T19:03:12.496Z,99109
2017-08-28T19:05:40.559Z,99110
2017-08-28T19:08:08.639Z,99105
2017-08-28T19:10:36.712Z,99103
2017-08-28T19:13:04.786Z,99119
2017-08-28T19:15:32.855Z,99110
2017-08-28T19:18:00.932Z,99113
2017-08-28T19:20:29.008Z,99122
2017-08-28T19:22:57.088Z,99119
2017-08-28T19:25:25.188Z,99129
2017-08-28T19:27:53.260Z,99128
2017-08-28T19:30:21.343Z,99128
2017-08-28T19:32:49.415Z,99124
2017-08-28T19:35:17.492Z,99130
2017-08-28T19:37:45.564Z,99127
2017-08-28T19:40:13.639Z,99145
2017-08-28T19:42:41.723Z,99147
2017-08-28T19:45:09.815Z,99145
2017-08-28T19:47:37.887Z,99132
2017-08-28T19:50:05.975Z,99136
2017-08-28T19:52:34.081Z,99142
2017-08-28T19:55:02.155Z,99145
2017-08-28T19:57:30.232Z,99142
2017-08-28T19:59:58.323Z,99139
2017-08-28T20:02:31.960Z,99135
2017-08-28T20:05:00.031Z,99141
2017-08-28T20:07:28.130Z,99146
2017-08-28T20:09:56.190Z,99144
2017-08-28T20:12:24.258Z,99138
2017-08-28T20:14:53.175Z,99136
2017-08-28T20:17:21.249Z,99138
2017-08-28T20:19:49.336Z,99135
2017-08-28T20:22:17.420Z,99131
2017-08-28T20:24:45.483Z,99140
2017-08-28T20:27:13.576Z,99125
2017-08-28T20:29:41.647Z,99133
2017-08-28T20:32:09.720Z,99136
2017-08-28T20:34:37.888Z,99138
2017-08-28T20:37:06.940Z,99141
2017-08-28T20:39:35.083Z,99141
2017-08-28T20:42:03.198Z,99151
2017-08-28T20:44:31.307Z,99149
2017-08-28T20:46:59.553Z,99143
2017-08-28T20:49:27.707Z,99139
2017-08-28T20:51:55.799Z,99139
2017-08-28T20:54:24.000Z,99137
2017-08-28T20:56:52.090Z,99143
2017-08-28T20:59:20.204Z,99143
2017-08-28T21:01:48.296Z,99151
2017-08-28T21:04:16.375Z,99147
2017-08-28T21:06:44.465Z,99147
2017-08-28T21:09:12.535Z,99144
2017-08-28T21:11:40.620Z,99156
2017-08-28T21:14:08.770Z,99145
2017-08-28T21:16:36.930Z,99152
2017-08-28T21:19:05.256Z,99154
2017-08-28T21:21:33.351Z,99162
2017-08-28T21:24:01.450Z,99161
2017-08-28T21:26:29.580Z,99162
2017-08-28T21:28:57.656Z,99159
2017-08-28T21:31:25.756Z,99164
2017-08-28T21:33:53.876Z,99168
2017-08-28T21:36:21.971Z,99164
2017-08-28T21:38:50.088Z,99166
2017-08-28T21:41:18.182Z,99161
2017-08-28T21:43:46.311Z,99158
2017-08-28T21:46:14.400Z,99167
2017-08-28T21:48:42.499Z,99165
2017-08-28T21:51:10.593Z,99176
2017-08-28T21:53:38.697Z,99175
2017-08-28T21:56:06.789Z,99169
2017-08-28T21:58:34.893Z,99174
2017-08-28T22:01:02.978Z,99169
2017-08-28T22:03:31.322Z,99163
2017-08-28T22:05:59.412Z,99168
2017-08-28T22:08:27.491Z,99163
2017-08-28T22:10:55.571Z,99171
2017-08-28T22:13:23.783Z,99162
2017-08-28T22:15:51.899Z,99154
2017-08-28T22:18:19.991Z,99162
2017-08-28T22:20:48.091Z,99159
2017-08-28T22:23:16.196Z,99152
2017-08-28T22:25:45.395Z,99158
2017-08-28T22:28:13.512Z,99160
2017-08-28T22:30:41.647Z,99163
2017-08-28T22:33:09.789Z,99164
2017-08-28T22:35:37.900Z,99171
2017-08-28T22:38:05.984Z,99171
2017-08-28T22:40:34.108Z,99175
2017-08-28T22:43:02.243Z,99172
2017-08-28T22:45:30.360Z,99175
2017-08-28T22:47:58.833Z,99171
2017-08-28T22:50:26.914Z,99172
2017-08-28T22:52:55.025Z,99184
2017-08-28T22:55:23.749Z,99180
2017-08-28T22:57:51.842Z,99172
2017-08-28T23:00:19.932Z,99177
2017-08-28T23:02:48.034Z,99169
2017-08-28T23:05:16.125Z,99169
2017-08-28T23:07:44.233Z,99172
2017-08-28T23:10:12.328Z,99165
2017-08-28T23:12:40.445Z,99182
2017-08-28T23:15:08.540Z,99164
2017-08-28T23:17:36.617Z,99166
2017-08-28T23:20:04.721Z,99151
2017-08-28T23:22:32.835Z,99150
2017-08-28T23:25:00.940Z,99144
2017-08-28T23:27:29.027Z,99141
2017-08-28T23:29:57.145Z,99134
2017-08-28T23:32:25.244Z,99142
2017-08-28T23:34:53.422Z,99137
2017-08-28T23:37:21.624Z,99142
2017-08-28T23:39:49.709Z,99128
2017-08-28T23:42:17.814Z,99125
2017-08-28T23:44:45.900Z,99133
2017-08-28T23:47:13.992Z,99129
2017-08-28T23:49:42.118Z,99134
2017-08-28T23:52:10.212Z,99126
2017-08-28T23:54:38.299Z,99129
2017-08-28T23:57:06.392Z,99132
2017-08-28T23:59:34.506Z,99133
